createdAt,value
2018-08-19T00:02:21.259Z,23.01
2018-08-19T00:05:06.877Z,22.97
2018-08-19T00:07:37.510Z,22.78
2018-08-19T00:10:07.410Z,23.06
2018-08-19T00:12:40.168Z,23.01
2018-08-19T00:15:09.479Z,22.83
2018-08-19T00:17:39.025Z,22.73
2018-08-19T00:25:33.602Z,22.55
2018-08-19T00:28:04.796Z,22.32
2018-08-19T00:30:35.346Z,22.30
2018-08-19T00:36:00.697Z,22.04
2018-08-19T00:38:30.084Z,22.26
2018-08-19T00:40:59.551Z,22.41
2018-08-19T00:43:28.687Z,22.56
2018-08-19T00:48:26.102Z,22.73
2018-08-19T00:50:55.334Z,22.65
2018-08-19T00:53:25.381Z,22.41
2018-08-19T00:55:55.279Z,22.32
2018-08-19T00:58:24.662Z,22.29
2018-08-19T01:00:54.261Z,22.13
2018-08-19T01:03:23.741Z,21.90
2018-08-19T01:05:52.945Z,21.90
2018-08-19T01:08:22.508Z,22.04
2018-08-19T01:10:52.567Z,22.23
2018-08-19T01:13:21.873Z,22.07
2018-08-19T01:15:51.353Z,22.11
2018-08-19T01:18:20.609Z,21.74
2018-08-19T01:20:54.568Z,21.74
2018-08-19T01:23:23.864Z,21.86
2018-08-19T01:25:52.971Z,21.96
2018-08-19T01:28:22.024Z,21.81
2018-08-19T01:30:52.026Z,21.96
2018-08-19T01:33:21.254Z,21.95
2018-08-19T01:35:50.385Z,22.07
2018-08-19T01:38:19.705Z,22.01
2018-08-19T01:40:49.000Z,22.00
2018-08-19T01:43:18.470Z,21.91
2018-08-19T01:45:48.583Z,21.95
2018-08-19T01:48:17.773Z,21.85
2018-08-19T01:50:46.887Z,22.05
2018-08-19T01:53:16.319Z,21.88
2018-08-19T01:55:45.682Z,21.87
2018-08-19T01:58:14.809Z,21.72
2018-08-19T02:00:44.112Z,21.74
2018-08-19T02:03:13.447Z,21.85
2018-08-19T02:05:43.758Z,21.91
2018-08-19T02:10:50.619Z,21.92
2018-08-19T02:13:21.925Z,21.89
2018-08-19T02:15:52.365Z,21.80
2018-08-19T02:18:22.996Z,21.65
2018-08-19T02:20:52.656Z,21.44
2018-08-19T02:23:21.998Z,21.60
2018-08-19T02:25:51.429Z,21.81
2018-08-19T02:28:21.875Z,21.67
2018-08-19T02:30:56.227Z,21.68
2018-08-19T02:33:25.470Z,21.55
2018-08-19T02:36:00.082Z,21.38
2018-08-19T02:38:29.767Z,21.38
2018-08-19T02:40:58.893Z,21.44
2018-08-19T02:43:28.103Z,21.52
2018-08-19T02:45:57.593Z,21.39
2018-08-19T02:48:45.004Z,21.20
2018-08-19T02:51:16.803Z,21.19
2018-08-19T02:53:47.393Z,21.32
2018-08-19T02:56:17.315Z,21.36
2018-08-19T02:58:47.417Z,21.31
2018-08-19T03:01:18.001Z,21.29
2018-08-19T03:03:48.489Z,21.20
2018-08-19T03:06:18.202Z,21.05
2018-08-19T03:08:53.039Z,21.13
2018-08-19T03:11:22.868Z,21.29
2018-08-19T03:13:51.984Z,21.44
2018-08-19T03:16:21.422Z,21.36
2018-08-19T03:18:51.978Z,20.99
2018-08-19T03:21:23.618Z,21.02
2018-08-19T03:23:54.239Z,20.99
2018-08-19T03:26:23.332Z,21.08
2018-08-19T03:28:52.872Z,21.01
2018-08-19T03:31:22.065Z,21.13
2018-08-19T03:33:51.187Z,21.17
2018-08-19T03:36:20.347Z,21.30
2018-08-19T03:38:49.771Z,21.15
2018-08-19T03:41:19.257Z,21.20
2018-08-19T03:43:53.427Z,21.25
2018-08-19T03:46:23.921Z,21.56
2018-08-19T03:48:53.174Z,21.42
2018-08-19T03:51:22.997Z,21.45
2018-08-19T03:53:53.017Z,21.50
2018-08-19T03:56:27.524Z,21.50
2018-08-19T03:58:59.810Z,21.40
2018-08-19T04:01:38.799Z,21.20
2018-08-19T04:04:09.440Z,21.23
2018-08-19T04:06:40.058Z,21.02
2018-08-19T04:09:09.947Z,20.95
2018-08-19T04:11:39.331Z,21.00
2018-08-19T04:14:26.436Z,21.33
2018-08-19T04:16:59.323Z,21.21
2018-08-19T04:19:30.739Z,21.14
2018-08-19T04:22:01.997Z,21.17
2018-08-19T04:24:31.703Z,21.25
2018-08-19T04:27:12.478Z,21.42
2018-08-19T04:32:22.623Z,21.82
2018-08-19T04:34:52.069Z,21.78
2018-08-19T04:37:21.583Z,21.89
2018-08-19T04:39:50.927Z,21.95
2018-08-19T04:42:20.408Z,21.86
2018-08-19T04:44:49.614Z,21.92
2018-08-19T04:47:29.596Z,22.00
2018-08-19T04:49:58.906Z,21.91
2018-08-19T04:52:28.266Z,22.06
2018-08-19T04:57:33.154Z,22.40
2018-08-19T05:00:02.316Z,22.31
2018-08-19T05:02:31.802Z,22.44
2018-08-19T05:05:01.084Z,22.54
2018-08-19T05:07:30.558Z,22.78
2018-08-19T05:09:59.694Z,22.96
2018-08-19T05:12:29.081Z,23.13
2018-08-19T05:14:58.255Z,23.34
2018-08-19T05:17:27.669Z,23.92
2018-08-19T05:20:16.030Z,24.10
2018-08-19T05:22:45.305Z,24.24
2018-08-19T05:25:14.324Z,24.25
2018-08-19T05:27:43.417Z,24.14
2018-08-19T05:30:12.329Z,24.43
2018-08-19T05:32:46.964Z,24.59
2018-08-19T05:35:15.935Z,24.75
2018-08-19T05:37:44.983Z,24.93
2018-08-19T05:40:14.000Z,24.95
2018-08-19T05:42:42.960Z,25.26
2018-08-19T05:45:11.968Z,25.54
2018-08-19T05:47:40.940Z,25.63
2018-08-19T05:50:09.984Z,25.49
2018-08-19T05:52:39.040Z,25.58
2018-08-19T05:55:08.355Z,25.57
2018-08-19T05:57:43.757Z,25.80
2018-08-19T06:00:18.469Z,25.93
2018-08-19T06:02:47.481Z,26.21
2018-08-19T06:05:16.368Z,26.35
2018-08-19T06:07:45.748Z,26.22
2018-08-19T06:10:14.753Z,26.27
2018-08-19T06:12:43.690Z,26.41
2018-08-19T06:15:12.590Z,26.41
2018-08-19T06:17:41.539Z,26.62
2018-08-19T06:20:11.146Z,26.67
2018-08-19T06:22:41.547Z,26.92
2018-08-19T06:25:11.946Z,27.10
2018-08-19T06:27:45.598Z,27.23
2018-08-19T06:30:15.620Z,27.06
2018-08-19T06:32:45.581Z,26.98
2018-08-19T06:35:15.272Z,27.25
2018-08-19T06:37:44.839Z,26.98
2018-08-19T06:42:56.820Z,27.23
2018-08-19T06:45:25.719Z,27.70
2018-08-19T06:47:54.523Z,27.65
2018-08-19T06:50:26.912Z,27.66
2018-08-19T06:52:56.237Z,27.72
2018-08-19T06:55:25.172Z,27.71
2018-08-19T06:57:57.050Z,27.87
2018-08-19T07:00:31.911Z,27.97
2018-08-19T07:03:04.102Z,27.83
2018-08-19T07:05:33.680Z,28.24
2018-08-19T07:08:03.126Z,28.26
2018-08-19T07:10:39.095Z,28.53
2018-08-19T07:13:10.471Z,28.63
2018-08-19T07:15:40.686Z,28.60
2018-08-19T07:18:12.217Z,28.65
2018-08-19T07:20:41.932Z,28.77
2018-08-19T07:23:11.210Z,28.61
2018-08-19T07:25:45.225Z,28.77
2018-08-19T07:28:15.514Z,28.65
2018-08-19T07:30:44.516Z,28.78
2018-08-19T07:33:13.920Z,28.82
2018-08-19T07:35:42.753Z,28.76
2018-08-19T07:38:11.905Z,28.84
2018-08-19T07:40:41.118Z,28.93
2018-08-19T07:43:10.193Z,29.17
2018-08-19T07:45:39.203Z,29.23
2018-08-19T07:48:08.321Z,29.49
2018-08-19T07:50:37.325Z,29.68
2018-08-19T07:53:06.393Z,29.82
2018-08-19T07:55:35.396Z,30.11
2018-08-19T07:58:04.615Z,30.13
2018-08-19T08:00:41.333Z,29.91
2018-08-19T08:03:10.462Z,29.78
2018-08-19T08:05:44.908Z,30.10
2018-08-19T08:08:13.857Z,30.26
2018-08-19T08:10:42.926Z,30.39
2018-08-19T08:13:13.280Z,30.78
2018-08-19T08:15:47.538Z,30.73
2018-08-19T08:20:58.913Z,31.03
2018-08-19T08:23:29.716Z,31.26
2018-08-19T08:25:58.710Z,31.19
2018-08-19T08:28:27.729Z,31.48
2018-08-19T08:30:56.947Z,31.48
2018-08-19T08:33:26.231Z,31.63
2018-08-19T08:38:31.758Z,31.65
2018-08-19T08:41:02.002Z,31.62
2018-08-19T08:43:30.985Z,31.74
2018-08-19T08:46:00.745Z,32.00
2018-08-19T08:48:30.500Z,32.26
2018-08-19T08:51:03.162Z,32.23
2018-08-19T08:53:40.442Z,32.04
2018-08-19T08:56:09.386Z,32.07
2018-08-19T08:58:38.400Z,32.51
2018-08-19T09:01:07.487Z,32.67
2018-08-19T09:03:36.523Z,32.94
2018-08-19T09:06:15.400Z,33.08
2018-08-19T09:08:44.496Z,32.87
2018-08-19T09:11:13.864Z,33.09
2018-08-19T09:13:42.941Z,33.09
2018-08-19T09:16:11.989Z,33.42
2018-08-19T09:18:41.127Z,33.45
2018-08-19T09:21:10.160Z,33.71
2018-08-19T09:23:39.249Z,33.62
2018-08-19T09:26:08.345Z,33.52
2018-08-19T09:28:37.281Z,33.38
2018-08-19T09:31:06.507Z,33.65
2018-08-19T09:33:36.346Z,34.00
2018-08-19T09:36:06.438Z,34.24
2018-08-19T09:38:36.220Z,34.48
2018-08-19T09:41:06.257Z,34.43
2018-08-19T09:43:35.218Z,34.31
2018-08-19T09:46:04.413Z,34.21
2018-08-19T09:48:33.469Z,34.68
2018-08-19T09:51:05.500Z,35.02
2018-08-19T09:53:35.208Z,35.10
2018-08-19T09:56:09.210Z,35.12
2018-08-19T09:58:38.430Z,35.01
2018-08-19T10:01:14.023Z,34.55
2018-08-19T10:03:42.974Z,34.54
2018-08-19T10:06:12.288Z,34.79
2018-08-19T10:08:41.486Z,34.63
2018-08-19T10:11:11.483Z,34.83
2018-08-19T10:13:40.557Z,35.10
2018-08-19T10:16:09.524Z,35.48
2018-08-19T10:18:38.672Z,35.74
2018-08-19T10:21:12.705Z,35.59
2018-08-19T10:23:42.479Z,35.78
2018-08-19T10:26:11.659Z,35.49
2018-08-19T10:28:41.849Z,35.69
2018-08-19T10:31:17.974Z,35.57
2018-08-19T10:33:47.450Z,35.49
2018-08-19T10:36:16.436Z,35.48
2018-08-19T10:38:45.328Z,35.97
2018-08-19T10:41:14.352Z,36.12
2018-08-19T10:43:43.650Z,36.35
2018-08-19T10:46:12.656Z,36.36
2018-08-19T10:48:41.918Z,36.27
2018-08-19T10:56:10.695Z,35.80
2018-08-19T10:58:45.535Z,35.50
2018-08-19T11:01:15.122Z,35.89
2018-08-19T11:03:43.997Z,36.17
2018-08-19T11:06:12.932Z,36.52
2018-08-19T11:08:49.547Z,36.38
2018-08-19T11:11:18.556Z,36.57
2018-08-19T11:13:48.032Z,36.39
2018-08-19T11:16:17.313Z,35.81
2018-08-19T11:18:47.891Z,36.03
2018-08-19T11:21:29.044Z,36.33
2018-08-19T11:23:59.262Z,36.17
2018-08-19T11:26:28.637Z,36.44
2018-08-19T11:29:00.793Z,36.77
2018-08-19T11:31:32.130Z,37.18
2018-08-19T11:36:44.227Z,37.34
2018-08-19T11:39:15.460Z,37.53
2018-08-19T11:41:44.349Z,37.14
2018-08-19T11:44:15.450Z,36.81
2018-08-19T11:46:44.419Z,36.74
2018-08-19T11:49:15.590Z,36.94
2018-08-19T11:51:49.805Z,37.29
2018-08-19T11:54:20.781Z,37.41
2018-08-19T11:56:57.054Z,37.33
2018-08-19T11:59:31.912Z,37.20
2018-08-19T12:02:02.155Z,37.67
2018-08-19T12:04:31.868Z,37.81
2018-08-19T12:07:01.260Z,37.37
2018-08-19T12:09:30.690Z,37.12
2018-08-19T12:12:00.117Z,37.08
2018-08-19T12:14:33.103Z,36.92
2018-08-19T12:17:02.828Z,36.16
2018-08-19T12:19:32.397Z,35.91
2018-08-19T12:22:02.584Z,36.02
2018-08-19T12:24:35.560Z,36.91
2018-08-19T12:27:06.573Z,36.76
2018-08-19T12:29:36.404Z,36.63
2018-08-19T12:32:27.751Z,37.49
2018-08-19T12:34:58.257Z,36.96
2018-08-19T12:37:28.261Z,36.39
2018-08-19T12:39:57.753Z,36.10
2018-08-19T12:42:27.651Z,35.78
2018-08-19T12:45:12.207Z,35.86
2018-08-19T12:47:41.014Z,36.01
2018-08-19T12:50:15.301Z,35.86
2018-08-19T12:52:44.325Z,36.03
2018-08-19T12:57:55.570Z,36.85
2018-08-19T13:00:27.995Z,37.40
2018-08-19T13:02:56.819Z,37.94
2018-08-19T13:05:25.702Z,37.86
2018-08-19T13:07:54.768Z,37.95
2018-08-19T13:10:27.606Z,37.94
2018-08-19T13:12:57.697Z,37.97
2018-08-19T13:15:28.923Z,38.02
2018-08-19T13:17:57.850Z,37.71
2018-08-19T13:20:27.152Z,37.48
2018-08-19T13:22:59.743Z,37.36
2018-08-19T13:25:28.858Z,36.65
2018-08-19T13:27:58.215Z,36.64
2018-08-19T13:30:27.779Z,37.29
2018-08-19T13:32:56.833Z,37.46
2018-08-19T13:35:25.963Z,37.28
2018-08-19T13:37:55.946Z,37.67
2018-08-19T13:40:25.864Z,38.24
2018-08-19T13:42:54.992Z,38.17
2018-08-19T13:45:26.196Z,38.20
2018-08-19T13:47:55.599Z,38.24
2018-08-19T13:50:25.961Z,37.64
2018-08-19T13:52:55.092Z,36.87
2018-08-19T13:55:24.683Z,37.17
2018-08-19T13:57:54.328Z,37.21
2018-08-19T14:03:02.936Z,37.75
2018-08-19T14:05:32.735Z,37.54
2018-08-19T14:08:02.712Z,37.29
2018-08-19T14:10:32.814Z,37.16
2018-08-19T14:13:02.655Z,37.08
2018-08-19T14:15:32.042Z,37.04
2018-08-19T14:18:04.838Z,36.95
2018-08-19T14:20:33.798Z,36.32
2018-08-19T14:23:03.188Z,36.24
2018-08-19T14:25:32.148Z,36.60
2018-08-19T14:28:01.009Z,36.29
2018-08-19T14:30:30.237Z,36.31
2018-08-19T14:35:33.960Z,35.65
2018-08-19T14:38:03.776Z,35.29
2018-08-19T14:43:09.664Z,35.03
2018-08-19T14:45:38.741Z,34.76
2018-08-19T14:48:07.931Z,34.71
2018-08-19T14:50:36.975Z,34.66
2018-08-19T14:53:05.959Z,34.46
2018-08-19T14:55:38.208Z,33.79
2018-08-19T14:58:10.869Z,33.09
2018-08-19T15:00:41.114Z,33.07
2018-08-19T15:03:13.713Z,32.94
2018-08-19T15:05:47.720Z,33.05
2018-08-19T15:08:20.072Z,33.12
2018-08-19T15:10:57.537Z,33.12
2018-08-19T15:13:29.256Z,33.39
2018-08-19T15:15:59.704Z,33.89
2018-08-19T15:18:31.456Z,34.55
2018-08-19T15:21:05.375Z,34.64
2018-08-19T15:23:37.956Z,34.70
2018-08-19T15:26:10.931Z,34.90
2018-08-19T15:28:40.906Z,34.34
2018-08-19T15:31:16.832Z,34.55
2018-08-19T15:33:50.158Z,35.00
2018-08-19T15:36:21.440Z,34.44
2018-08-19T15:38:52.556Z,34.46
2018-08-19T15:41:23.833Z,34.42
2018-08-19T15:43:56.165Z,34.53
2018-08-19T15:46:28.344Z,34.53
2018-08-19T15:48:59.003Z,34.63
2018-08-19T15:51:31.878Z,34.49
2018-08-19T15:54:03.384Z,34.57
2018-08-19T15:56:36.159Z,34.23
2018-08-19T15:59:10.269Z,34.30
2018-08-19T16:04:25.041Z,34.68
2018-08-19T16:06:56.647Z,34.86
2018-08-19T16:09:30.036Z,34.42
2018-08-19T16:14:41.622Z,35.28
2018-08-19T16:17:12.639Z,35.16
2018-08-19T16:19:45.355Z,34.65
2018-08-19T16:22:17.859Z,34.30
2018-08-19T16:24:51.477Z,34.28
2018-08-19T16:27:24.254Z,34.30
2018-08-19T16:32:31.062Z,34.30
2018-08-19T16:35:03.311Z,34.29
2018-08-19T16:37:34.905Z,33.85
2018-08-19T16:40:07.541Z,33.99
2018-08-19T16:42:39.353Z,34.37
2018-08-19T16:45:13.808Z,33.98
2018-08-19T16:47:44.901Z,34.10
2018-08-19T16:50:23.320Z,33.90
2018-08-19T16:52:58.513Z,33.71
2018-08-19T16:55:31.221Z,33.58
2018-08-19T17:00:41.365Z,33.22
2018-08-19T17:03:26.310Z,32.81
2018-08-19T17:06:00.246Z,32.91
2018-08-19T17:08:33.850Z,32.82
2018-08-19T17:11:06.838Z,32.62
2018-08-19T17:13:39.188Z,32.62
2018-08-19T17:16:09.565Z,32.41
2018-08-19T17:18:44.433Z,32.38
2018-08-19T17:21:16.142Z,32.12
2018-08-19T17:23:53.759Z,31.98
2018-08-19T17:26:26.726Z,31.80
2018-08-19T17:29:32.646Z,31.74
2018-08-19T17:32:05.834Z,31.40
2018-08-19T17:34:40.589Z,31.45
2018-08-19T17:37:12.993Z,31.37
2018-08-19T17:39:46.841Z,31.17
2018-08-19T17:42:19.917Z,31.04
2018-08-19T17:44:53.184Z,30.90
2018-08-19T17:47:25.526Z,30.77
2018-08-19T17:49:59.753Z,30.74
2018-08-19T17:52:32.870Z,30.67
2018-08-19T17:55:04.720Z,30.53
2018-08-19T17:57:36.976Z,30.48
2018-08-19T18:00:08.801Z,30.39
2018-08-19T18:02:40.774Z,30.29
2018-08-19T18:05:17.045Z,30.25
2018-08-19T18:07:56.711Z,30.11
2018-08-19T18:10:28.230Z,29.94
2018-08-19T18:13:00.336Z,29.81
2018-08-19T18:15:32.721Z,29.63
2018-08-19T18:18:08.877Z,29.53
2018-08-19T18:20:45.748Z,29.42
2018-08-19T18:23:34.149Z,29.32
2018-08-19T18:26:05.625Z,29.21
2018-08-19T18:28:36.466Z,29.26
2018-08-19T18:31:09.184Z,29.15
2018-08-19T18:33:51.815Z,29.05
2018-08-19T18:36:25.007Z,28.88
2018-08-19T18:38:58.366Z,28.89
2018-08-19T18:41:35.674Z,28.76
2018-08-19T18:44:09.603Z,28.72
2018-08-19T18:46:43.283Z,28.78
2018-08-19T18:49:17.401Z,28.59
2018-08-19T18:51:50.131Z,28.51
2018-08-19T18:54:33.946Z,28.56
2018-08-19T18:57:09.109Z,28.36
2018-08-19T18:59:45.818Z,28.28
2018-08-19T19:02:18.850Z,28.16
2018-08-19T19:04:51.796Z,28.05
2018-08-19T19:07:24.134Z,28.09
2018-08-19T19:09:55.831Z,28.02
2018-08-19T19:12:25.668Z,28.06
2018-08-19T19:14:56.365Z,27.79
2018-08-19T19:17:30.075Z,27.65
2018-08-19T19:20:02.485Z,27.40
2018-08-19T19:22:34.209Z,27.28
2018-08-19T19:25:04.264Z,27.46
2018-08-19T19:27:36.776Z,27.48
2018-08-19T19:30:09.218Z,27.50
2018-08-19T19:32:41.640Z,27.38
2018-08-19T19:35:17.011Z,27.20
2018-08-19T19:37:49.959Z,27.13
2018-08-19T19:40:22.485Z,27.19
2018-08-19T19:42:54.493Z,27.33
2018-08-19T19:45:24.917Z,27.39
2018-08-19T19:50:36.239Z,27.12
2018-08-19T19:53:07.856Z,27.05
2018-08-19T19:55:41.795Z,26.84
2018-08-19T19:58:14.608Z,26.75
2018-08-19T20:00:55.453Z,26.72
2018-08-19T20:03:27.628Z,26.72
2018-08-19T20:05:59.315Z,26.44
2018-08-19T20:08:29.409Z,26.48
2018-08-19T20:11:07.441Z,26.42
2018-08-19T20:13:38.062Z,26.46
2018-08-19T20:16:13.310Z,26.52
2018-08-19T20:18:47.533Z,26.24
2018-08-19T20:21:23.612Z,26.17
2018-08-19T20:23:57.828Z,26.08
2018-08-19T20:26:29.981Z,26.13
2018-08-19T20:29:04.217Z,26.10
2018-08-19T20:31:35.787Z,26.02
2018-08-19T20:34:04.990Z,26.10
2018-08-19T20:36:34.942Z,25.95
2018-08-19T20:39:11.005Z,26.10
2018-08-19T20:41:41.945Z,25.94
2018-08-19T20:44:15.956Z,25.95
2018-08-19T20:46:54.662Z,26.07
2018-08-19T20:49:26.652Z,26.02
2018-08-19T20:51:58.845Z,26.01
2018-08-19T20:54:29.212Z,26.11
2018-08-19T20:56:59.516Z,26.01
2018-08-19T20:59:35.159Z,25.84
2018-08-19T21:02:07.698Z,25.65
2018-08-19T21:04:40.893Z,25.62
2018-08-19T21:07:12.649Z,25.70
2018-08-19T21:09:43.923Z,25.75
2018-08-19T21:12:14.578Z,25.89
2018-08-19T21:14:45.951Z,25.69
2018-08-19T21:17:18.485Z,25.50
2018-08-19T21:19:51.004Z,25.50
2018-08-19T21:22:22.411Z,25.33
2018-08-19T21:27:32.661Z,25.06
2018-08-19T21:30:03.441Z,25.25
2018-08-19T21:32:35.004Z,25.43
2018-08-19T21:35:07.543Z,25.51
2018-08-19T21:37:39.346Z,25.44
2018-08-19T21:40:14.072Z,25.38
2018-08-19T21:42:52.569Z,25.16
2018-08-19T21:45:23.305Z,25.15
2018-08-19T21:53:19.157Z,24.91
2018-08-19T21:55:51.295Z,24.66
2018-08-19T21:58:22.479Z,24.51
2018-08-19T22:00:59.895Z,24.56
2018-08-19T22:03:36.817Z,24.66
2018-08-19T22:06:08.762Z,24.32
2018-08-19T22:11:19.125Z,24.31
2018-08-19T22:13:49.941Z,24.55
2018-08-19T22:16:20.553Z,24.60
2018-08-19T22:18:52.333Z,24.30
2018-08-19T22:21:23.777Z,24.37
2018-08-19T22:23:57.885Z,24.51
2018-08-19T22:26:29.526Z,24.14
2018-08-19T22:29:14.529Z,24.04
2018-08-19T22:31:48.195Z,24.26
2018-08-19T22:34:23.742Z,24.10
2018-08-19T22:36:55.683Z,24.22
2018-08-19T22:39:25.822Z,24.05
2018-08-19T22:41:58.214Z,24.18
2018-08-19T22:44:29.959Z,24.20
2018-08-19T22:47:00.257Z,24.01
2018-08-19T22:49:33.552Z,23.58
2018-08-19T22:52:25.904Z,23.82
2018-08-19T22:54:59.318Z,23.85
2018-08-19T22:57:32.400Z,23.82
2018-08-19T23:00:04.320Z,23.89
2018-08-19T23:02:35.708Z,23.77
2018-08-19T23:05:08.695Z,23.62
2018-08-19T23:07:40.619Z,23.47
2018-08-19T23:10:11.603Z,23.88
2018-08-19T23:12:44.177Z,23.95
2018-08-19T23:15:24.555Z,23.55
2018-08-19T23:17:56.912Z,23.41
2018-08-19T23:20:30.073Z,23.38
2018-08-19T23:23:00.723Z,23.45
2018-08-19T23:25:31.567Z,23.09
2018-08-19T23:28:03.739Z,22.94
2018-08-19T23:30:35.918Z,22.99
2018-08-19T23:33:05.943Z,23.06
2018-08-19T23:35:39.900Z,22.85
2018-08-19T23:38:11.628Z,22.88
2018-08-19T23:40:43.711Z,22.98
2018-08-19T23:43:15.915Z,22.89
2018-08-19T23:45:48.513Z,22.66
2018-08-19T23:48:18.600Z,22.77
2018-08-19T23:50:51.030Z,22.86
2018-08-19T23:53:23.338Z,22.99
2018-08-19T23:55:53.680Z,22.93
2018-08-19T23:58:26.600Z,22.86
